Belvidere, NE (68315)

4:09 PM CST on December 22, 2014 (GMT -0600)
Hebron Municipal | Change Station
CLOSE
Current Station
Airport
Location: Hebron,
Elevation: 1467 ft
Nearby Weather Stations

Elev 1467 ft 40.15 °N, 97.59 °W | Updated 14 minutes ago

Overcast
Overcast
47 °F
Feels Like 47 °F
N
14
Wind Variable Wind from NW
Gusts 23 mph

Today
High -- | Low -- °F
--% Chance of Precip.
Yesterday
High -- | Low -- °F
Precip. -- in
7:49 AM 5:07 PM
New Moon, 1% visible
Pressure 29.48 in
Visibility 10.0 miles
Clouds Overcast 4900 ft
Dew Point 32 °F
Humidity 56%
Rainfall 0.07 in
Snow Depth Not available.
UV 0 out of 12
Pollen .10 out of 12
Air Quality Not available.
Flu Activity Not available.
METAR KHJH 222155Z AUTO 32012G20KT 10SM OVC049 08/00 A2948 RMK AO2 T00811001

More Conditions Fewer Conditions

Pressure 29.48 in
Visibility 10.0 miles
Clouds Overcast 4900 ft
Dew Point 32 °F
Humidity 56%
Rainfall 0.07 in
Snow Depth Not available.
UV 0 out of 12
Pollen .10 out of 12
Air Quality Not available.
Flu Activity Not available.
METAR KHJH 222155Z AUTO 32012G20KT 10SM OVC049 08/00 A2948 RMK AO2 T00811001

More Conditions Fewer Conditions

10-Day Weather Forecast

Almanac

Astronomy

Dec. 22, 2014 Rise Set
Actual Time
Civil Twilight
Nautical Twilight
Astronomical Twilight
Moon
Length of Visible Light
Length of Day
Tomorrow will be .
, % of the Moon is Illuminated

Today's Extremes

State Highs State Lows

Community

WunderPhotos

Upload Photos

1,779,691 photos uploaded!

WunderBlogs® & News

Nearby

Air Quality

  Air Quality AQ Index Pollutant
Not available.

Snow Depth

Station Depth Elevation

Earthquake Activity

City Distance Mag. Time & Date
Minimum magnitude displayed is 2.5.

Coastal Water Temperatures

Place Temperature

Nearby Weather Stations